Main page
METAR-TAF:

Airports :

Belgrade, Serbia

Belgrade Nikola Tesla Airport

latitude: 44-49N, longitude: 020-17E, elevation: 96 m

Current weather observation

The report was made 14 minutes ago, at 18:30 UTC
Wind 6 kt from the East
Temperature 12°C
Humidity 76%
Pressure 1018 hPa
Visibility 10 km or more
no clouds below 1500 m and no cumulonimbus

METAR: LYBE 301830Z 09006KT CAVOK 12/08 Q1018 NOSIG

Time: 20:44 (18:44 UTC)

Forecast

The report was made 1 hour and 44 minutes ago, at 17:00 UTC
Forecast valid from 30 at 18 UTC to 01 at 18 UTC
Wind 6 kt from the East
Visibility 10 km or more
no clouds below 1500 m and no cumulonimbus
Becoming
from 01 at 03 UTC to 01 at 05 UTC
Wind 15 kt from the Southeast
Temporary
from 01 at 13 UTC to 01 at 18 UTC
rain

TAF: LYBE 301700Z 3018/0118 08006KT CAVOK TX18/0112Z TN09/0104Z BECMG 0103/0105 13015KT TEMPO 0113/0118 RA

METAR-TAF

Weather observations and forecasts of more than 4000 airports (METAR and TAF reports).

The available stations are represented by yellow and red dots on the map.

Hover mouse over dot to see the name of the station.

Then click to see weather observations and forecasts.

To change the map : click on the green buttons with a black cross to zoom in, on the green button with a dash to zoom out, or on the green arrows for adjacent maps.


METAR-TAF: